<?xml version="1.0" encoding="UTF-8" standalone="no" ?>
<gpx xmlns="http://www.topografix.com/GPX/1/1" xmlns:xsi="http://www.w3.org/2001/XMLSchema-instance" xsi:schemaLocation="http://www.topografix.com/GPX/1/1 http://www.topografix.com/GPX/1/1/gpx.xsd" version="1.1" creator="VisuGPX - https://www.visugpx.com">
  <metadata>
    <name>malbosc</name>
  </metadata>
  <wpt lat="44.34649" lon="4.07317">
    <ele>466.2</ele>
    <name><![CDATA[0000386]]></name>
    <type><![CDATA[Point de départ]]></type>
  </wpt>
  <wpt lat="44.34649" lon="4.07317">
    <ele>466.2</ele>
    <name><![CDATA[0000386]]></name>
    <type><![CDATA[Point de départ]]></type>
  </wpt>
  <wpt lat="44.33125" lon="4.06912">
    <ele>500</ele>
    <name><![CDATA[0000388]]></name>
    <type><![CDATA[Point d'arrivée]]></type>
  </wpt>
  <wpt lat="44.34649" lon="4.07317">
    <ele>466.2</ele>
    <name><![CDATA[0000386]]></name>
    <type><![CDATA[Point de départ]]></type>
  </wpt>
  <wpt lat="44.34649" lon="4.07317">
    <ele>466.2</ele>
    <name><![CDATA[0000386]]></name>
    <type><![CDATA[Point de départ]]></type>
  </wpt>
  <wpt lat="44.33125" lon="4.06912">
    <ele>500</ele>
    <name><![CDATA[0000388]]></name>
    <type><![CDATA[Point d'arrivée]]></type>
  </wpt>
  <wpt lat="44.34614" lon="4.07362">
    <ele>460.9</ele>
  </wpt>
  <wpt lat="44.34921" lon="4.07479">
    <ele>439.1</ele>
  </wpt>
  <wpt lat="44.34649" lon="4.07317">
    <ele>466.2</ele>
    <name><![CDATA[0000386]]></name>
    <type><![CDATA[Point de départ]]></type>
  </wpt>
  <wpt lat="44.34649" lon="4.07317">
    <ele>466.2</ele>
    <name><![CDATA[0000386]]></name>
    <type><![CDATA[Point de départ]]></type>
  </wpt>
  <wpt lat="44.33125" lon="4.06912">
    <ele>500</ele>
    <name><![CDATA[0000388]]></name>
    <type><![CDATA[Point d'arrivée]]></type>
  </wpt>
  <trk>
    <name><![CDATA[malbosc_2]]></name>
    <trkseg>
      <trkpt lat="44.34595" lon="4.07313">
        <ele>459.56</ele>
        <time>2020-10-12T15:15:29.000Z</time>
      </trkpt>
      <trkpt lat="44.34577" lon="4.07305">
        <ele>460.81</ele>
        <time>2020-10-12T15:15:34.000Z</time>
      </trkpt>
      <trkpt lat="44.34554" lon="4.07304">
        <ele>461.03</ele>
        <time>2020-10-12T15:15:39.000Z</time>
      </trkpt>
      <trkpt lat="44.34535" lon="4.073">
        <ele>460.76</ele>
        <time>2020-10-12T15:15:46.000Z</time>
      </trkpt>
      <trkpt lat="44.3451" lon="4.07298">
        <ele>459.12</ele>
        <time>2020-10-12T15:16:12.000Z</time>
      </trkpt>
      <trkpt lat="44.3449" lon="4.07304">
        <ele>455.42</ele>
        <time>2020-10-12T15:16:15.000Z</time>
      </trkpt>
      <trkpt lat="44.34468" lon="4.07307">
        <ele>454.56</ele>
        <time>2020-10-12T15:16:18.000Z</time>
      </trkpt>
      <trkpt lat="44.34443" lon="4.07319">
        <ele>452.24</ele>
        <time>2020-10-12T15:16:22.000Z</time>
      </trkpt>
      <trkpt lat="44.34417" lon="4.07315">
        <ele>452.31</ele>
        <time>2020-10-12T15:16:25.000Z</time>
      </trkpt>
      <trkpt lat="44.34393" lon="4.07305">
        <ele>453.71</ele>
        <time>2020-10-12T15:16:28.000Z</time>
      </trkpt>
      <trkpt lat="44.3437" lon="4.07294">
        <ele>451.07</ele>
        <time>2020-10-12T15:16:32.000Z</time>
      </trkpt>
      <trkpt lat="44.34342" lon="4.07278">
        <ele>450.34</ele>
        <time>2020-10-12T15:16:35.000Z</time>
      </trkpt>
      <trkpt lat="44.3432" lon="4.07274">
        <ele>451.88</ele>
        <time>2020-10-12T15:16:37.000Z</time>
      </trkpt>
      <trkpt lat="44.34301" lon="4.07267">
        <ele>452.93</ele>
        <time>2020-10-12T15:16:39.000Z</time>
      </trkpt>
      <trkpt lat="44.34278" lon="4.0725">
        <ele>457.23</ele>
        <time>2020-10-12T15:16:42.000Z</time>
      </trkpt>
      <trkpt lat="44.34266" lon="4.07222">
        <ele>458.38</ele>
        <time>2020-10-12T15:16:45.000Z</time>
      </trkpt>
      <trkpt lat="44.34254" lon="4.07189">
        <ele>456.43</ele>
        <time>2020-10-12T15:16:48.000Z</time>
      </trkpt>
      <trkpt lat="44.34247" lon="4.07165">
        <ele>456.98</ele>
        <time>2020-10-12T15:16:50.000Z</time>
      </trkpt>
      <trkpt lat="44.34243" lon="4.07132">
        <ele>459.68</ele>
        <time>2020-10-12T15:16:53.000Z</time>
      </trkpt>
      <trkpt lat="44.34226" lon="4.07113">
        <ele>460.03</ele>
        <time>2020-10-12T15:16:56.000Z</time>
      </trkpt>
      <trkpt lat="44.34208" lon="4.07109">
        <ele>460.24</ele>
        <time>2020-10-12T15:16:58.000Z</time>
      </trkpt>
      <trkpt lat="44.34185" lon="4.07105">
        <ele>458.22</ele>
        <time>2020-10-12T15:17:01.000Z</time>
      </trkpt>
      <trkpt lat="44.3416" lon="4.07104">
        <ele>454.83</ele>
        <time>2020-10-12T15:17:03.000Z</time>
      </trkpt>
      <trkpt lat="44.34133" lon="4.07105">
        <ele>453.2</ele>
        <time>2020-10-12T15:17:05.000Z</time>
      </trkpt>
      <trkpt lat="44.34117" lon="4.07119">
        <ele>454.45</ele>
        <time>2020-10-12T15:17:07.000Z</time>
      </trkpt>
      <trkpt lat="44.34096" lon="4.07123">
        <ele>455.19</ele>
        <time>2020-10-12T15:17:09.000Z</time>
      </trkpt>
      <trkpt lat="44.34069" lon="4.07127">
        <ele>456.02</ele>
        <time>2020-10-12T15:17:12.000Z</time>
      </trkpt>
      <trkpt lat="44.34049" lon="4.07126">
        <ele>455.55</ele>
        <time>2020-10-12T15:17:14.000Z</time>
      </trkpt>
      <trkpt lat="44.34031" lon="4.07112">
        <ele>456.17</ele>
        <time>2020-10-12T15:17:17.000Z</time>
      </trkpt>
      <trkpt lat="44.34022" lon="4.07085">
        <ele>457.86</ele>
        <time>2020-10-12T15:17:20.000Z</time>
      </trkpt>
      <trkpt lat="44.34016" lon="4.07058">
        <ele>458.88</ele>
        <time>2020-10-12T15:17:23.000Z</time>
      </trkpt>
      <trkpt lat="44.33997" lon="4.07055">
        <ele>460.71</ele>
        <time>2020-10-12T15:17:26.000Z</time>
      </trkpt>
      <trkpt lat="44.33979" lon="4.07052">
        <ele>461.71</ele>
        <time>2020-10-12T15:17:28.000Z</time>
      </trkpt>
      <trkpt lat="44.33952" lon="4.07035">
        <ele>462.73</ele>
        <time>2020-10-12T15:17:31.000Z</time>
      </trkpt>
      <trkpt lat="44.33937" lon="4.07013">
        <ele>460.7</ele>
        <time>2020-10-12T15:17:33.000Z</time>
      </trkpt>
      <trkpt lat="44.33919" lon="4.06989">
        <ele>461.94</ele>
        <time>2020-10-12T15:17:36.000Z</time>
      </trkpt>
      <trkpt lat="44.33897" lon="4.06982">
        <ele>464.62</ele>
        <time>2020-10-12T15:17:39.000Z</time>
      </trkpt>
      <trkpt lat="44.33878" lon="4.06982">
        <ele>464.12</ele>
        <time>2020-10-12T15:17:42.000Z</time>
      </trkpt>
      <trkpt lat="44.33877" lon="4.07008">
        <ele>466.36</ele>
        <time>2020-10-12T15:17:44.000Z</time>
      </trkpt>
      <trkpt lat="44.33874" lon="4.07045">
        <ele>471.22</ele>
        <time>2020-10-12T15:17:47.000Z</time>
      </trkpt>
      <trkpt lat="44.33866" lon="4.07072">
        <ele>472.67</ele>
        <time>2020-10-12T15:17:49.000Z</time>
      </trkpt>
      <trkpt lat="44.3386" lon="4.07103">
        <ele>473.01</ele>
        <time>2020-10-12T15:17:51.000Z</time>
      </trkpt>
      <trkpt lat="44.33841" lon="4.07113">
        <ele>474.22</ele>
        <time>2020-10-12T15:17:54.000Z</time>
      </trkpt>
      <trkpt lat="44.33816" lon="4.07102">
        <ele>475.99</ele>
        <time>2020-10-12T15:17:57.000Z</time>
      </trkpt>
      <trkpt lat="44.338" lon="4.07086">
        <ele>475.13</ele>
        <time>2020-10-12T15:17:59.000Z</time>
      </trkpt>
      <trkpt lat="44.33785" lon="4.07068">
        <ele>474.14</ele>
        <time>2020-10-12T15:18:01.000Z</time>
      </trkpt>
      <trkpt lat="44.33768" lon="4.07048">
        <ele>474.05</ele>
        <time>2020-10-12T15:18:03.000Z</time>
      </trkpt>
      <trkpt lat="44.33758" lon="4.07023">
        <ele>471.52</ele>
        <time>2020-10-12T15:18:05.000Z</time>
      </trkpt>
      <trkpt lat="44.33739" lon="4.07029">
        <ele>472.03</ele>
        <time>2020-10-12T15:18:08.000Z</time>
      </trkpt>
      <trkpt lat="44.3373" lon="4.0707">
        <ele>471.83</ele>
        <time>2020-10-12T15:18:11.000Z</time>
      </trkpt>
      <trkpt lat="44.3372" lon="4.071">
        <ele>470.42</ele>
        <time>2020-10-12T15:18:13.000Z</time>
      </trkpt>
      <trkpt lat="44.33706" lon="4.07124">
        <ele>471.69</ele>
        <time>2020-10-12T15:18:15.000Z</time>
      </trkpt>
      <trkpt lat="44.3369" lon="4.07143">
        <ele>473.62</ele>
        <time>2020-10-12T15:18:17.000Z</time>
      </trkpt>
      <trkpt lat="44.33669" lon="4.07157">
        <ele>472.19</ele>
        <time>2020-10-12T15:18:19.000Z</time>
      </trkpt>
      <trkpt lat="44.33647" lon="4.07163">
        <ele>470.24</ele>
        <time>2020-10-12T15:18:21.000Z</time>
      </trkpt>
      <trkpt lat="44.3362" lon="4.07165">
        <ele>467.96</ele>
        <time>2020-10-12T15:18:23.000Z</time>
      </trkpt>
      <trkpt lat="44.33597" lon="4.07154">
        <ele>468.74</ele>
        <time>2020-10-12T15:18:25.000Z</time>
      </trkpt>
      <trkpt lat="44.33578" lon="4.07135">
        <ele>471.12</ele>
        <time>2020-10-12T15:18:27.000Z</time>
      </trkpt>
      <trkpt lat="44.33557" lon="4.07136">
        <ele>471.05</ele>
        <time>2020-10-12T15:18:29.000Z</time>
      </trkpt>
      <trkpt lat="44.33538" lon="4.07148">
        <ele>472.66</ele>
        <time>2020-10-12T15:18:31.000Z</time>
      </trkpt>
      <trkpt lat="44.3352" lon="4.07168">
        <ele>474.41</ele>
        <time>2020-10-12T15:18:33.000Z</time>
      </trkpt>
      <trkpt lat="44.33502" lon="4.07182">
        <ele>474.08</ele>
        <time>2020-10-12T15:18:35.000Z</time>
      </trkpt>
      <trkpt lat="44.33485" lon="4.07193">
        <ele>474.96</ele>
        <time>2020-10-12T15:18:37.000Z</time>
      </trkpt>
      <trkpt lat="44.33457" lon="4.07199">
        <ele>475.75</ele>
        <time>2020-10-12T15:18:40.000Z</time>
      </trkpt>
      <trkpt lat="44.33435" lon="4.07193">
        <ele>475.11</ele>
        <time>2020-10-12T15:18:42.000Z</time>
      </trkpt>
      <trkpt lat="44.33412" lon="4.07176">
        <ele>475.76</ele>
        <time>2020-10-12T15:18:44.000Z</time>
      </trkpt>
      <trkpt lat="44.33393" lon="4.07169">
        <ele>479.66</ele>
        <time>2020-10-12T15:18:46.000Z</time>
      </trkpt>
      <trkpt lat="44.33375" lon="4.07154">
        <ele>482.75</ele>
        <time>2020-10-12T15:18:48.000Z</time>
      </trkpt>
      <trkpt lat="44.33348" lon="4.07134">
        <ele>486.54</ele>
        <time>2020-10-12T15:18:51.000Z</time>
      </trkpt>
      <trkpt lat="44.33325" lon="4.07118">
        <ele>488.82</ele>
        <time>2020-10-12T15:18:53.000Z</time>
      </trkpt>
      <trkpt lat="44.33301" lon="4.07102">
        <ele>489.24</ele>
        <time>2020-10-12T15:18:55.000Z</time>
      </trkpt>
      <trkpt lat="44.33281" lon="4.07087">
        <ele>489.77</ele>
        <time>2020-10-12T15:18:57.000Z</time>
      </trkpt>
      <trkpt lat="44.33262" lon="4.07074">
        <ele>490.73</ele>
        <time>2020-10-12T15:18:59.000Z</time>
      </trkpt>
      <trkpt lat="44.33245" lon="4.07056">
        <ele>491.02</ele>
        <time>2020-10-12T15:19:01.000Z</time>
      </trkpt>
      <trkpt lat="44.33228" lon="4.07037">
        <ele>491.05</ele>
        <time>2020-10-12T15:19:03.000Z</time>
      </trkpt>
      <trkpt lat="44.33213" lon="4.07018">
        <ele>490.84</ele>
        <time>2020-10-12T15:19:06.000Z</time>
      </trkpt>
      <trkpt lat="44.33204" lon="4.06987">
        <ele>493.2</ele>
        <time>2020-10-12T15:19:09.000Z</time>
      </trkpt>
      <trkpt lat="44.3319" lon="4.06958">
        <ele>492.36</ele>
        <time>2020-10-12T15:19:12.000Z</time>
      </trkpt>
      <trkpt lat="44.33165" lon="4.06934">
        <ele>492.06</ele>
        <time>2020-10-12T15:19:16.000Z</time>
      </trkpt>
      <trkpt lat="44.33145" lon="4.06926">
        <ele>491.21</ele>
        <time>2020-10-12T15:19:19.000Z</time>
      </trkpt>
      <trkpt lat="44.33125" lon="4.06912">
        <ele>490.99</ele>
        <time>2020-10-12T15:19:23.000Z</time>
      </trkpt>
    </trkseg>
  </trk>
</gpx>